createdAt,value
2022-08-25T00:02:02.972Z,5.00
2022-08-25T00:04:30.591Z,5.18
2022-08-25T00:07:02.653Z,4.75
2022-08-25T00:09:29.772Z,4.63
2022-08-25T00:11:56.575Z,7.25
2022-08-25T00:14:30.941Z,5.82
2022-08-25T00:16:57.943Z,5.55
2022-08-25T00:19:28.621Z,4.93
2022-08-25T00:21:56.453Z,4.32
2022-08-25T00:24:23.840Z,4.82
2022-08-25T00:26:55.356Z,5.45
2022-08-25T00:29:23.547Z,6.75
2022-08-25T00:31:50.351Z,4.88
2022-08-25T00:34:22.692Z,5.05
2022-08-25T00:36:51.836Z,5.22
2022-08-25T00:39:21.132Z,6.40
2022-08-25T00:41:50.186Z,5.70
2022-08-25T00:44:20.321Z,6.90
2022-08-25T00:46:51.333Z,5.57
2022-08-25T00:49:26.301Z,5.38
2022-08-25T00:51:59.757Z,8.75
2022-08-25T00:54:37.721Z,5.25
2022-08-25T00:57:06.622Z,5.40
2022-08-25T00:59:34.248Z,7.60
2022-08-25T01:02:01.483Z,5.28
2022-08-25T01:04:28.407Z,7.88
2022-08-25T01:06:57.740Z,7.40
2022-08-25T01:09:24.686Z,7.57
2022-08-25T01:11:51.467Z,5.72
2022-08-25T01:14:20.293Z,5.82
2022-08-25T01:16:47.176Z,5.80
2022-08-25T01:19:18.046Z,4.95
2022-08-25T01:21:53.888Z,5.72
2022-08-25T01:24:26.434Z,6.13
2022-08-25T01:26:53.400Z,5.30
2022-08-25T01:29:25.287Z,6.57
2022-08-25T01:31:58.078Z,4.82
2022-08-25T01:34:27.515Z,5.38
2022-08-25T01:36:56.481Z,6.38
2022-08-25T01:39:24.537Z,5.68
2022-08-25T01:42:06.279Z,5.82
2022-08-25T01:44:35.899Z,4.55
2022-08-25T01:47:04.581Z,6.23
2022-08-25T01:49:32.199Z,5.15
2022-08-25T01:52:12.664Z,5.88
2022-08-25T01:57:06.287Z,5.47
2022-08-25T01:59:33.287Z,5.00
2022-08-25T02:02:00.414Z,5.78
2022-08-25T02:04:32.311Z,7.55
2022-08-25T02:07:00.969Z,7.15
2022-08-25T02:09:27.931Z,7.68
2022-08-25T02:11:54.897Z,6.82
2022-08-25T02:14:21.923Z,6.07
2022-08-25T02:16:51.023Z,5.43
2022-08-25T02:19:19.325Z,7.80
2022-08-25T02:21:46.569Z,7.65
2022-08-25T02:24:13.828Z,5.75
2022-08-25T02:26:41.239Z,5.93
2022-08-25T02:29:08.820Z,7.10
2022-08-25T02:31:36.403Z,5.82
2022-08-25T02:34:04.287Z,5.03
2022-08-25T02:36:32.257Z,7.80
2022-08-25T02:38:59.568Z,5.30
2022-08-25T02:41:30.956Z,6.43
2022-08-25T02:44:00.392Z,5.93
2022-08-25T02:46:27.778Z,6.25
2022-08-25T02:48:55.289Z,5.93
2022-08-25T02:51:24.514Z,6.68
2022-08-25T02:53:51.734Z,5.38
2022-08-25T02:56:19.870Z,5.15
2022-08-25T02:58:47.700Z,6.13
2022-08-25T03:01:15.992Z,5.00
2022-08-25T03:03:44.995Z,6.50
2022-08-25T03:06:20.704Z,5.85
2022-08-25T03:08:47.497Z,6.13
2022-08-25T03:11:14.371Z,5.47
2022-08-25T03:13:41.426Z,6.22
2022-08-25T03:16:10.874Z,7.30
2022-08-25T03:18:41.110Z,5.45
2022-08-25T03:21:10.304Z,7.25
2022-08-25T03:23:37.480Z,6.38
2022-08-25T03:26:23.377Z,7.95
2022-08-25T03:28:50.211Z,6.65
2022-08-25T03:31:17.166Z,5.90
2022-08-25T03:33:44.037Z,7.05
2022-08-25T03:36:14.629Z,6.60
2022-08-25T03:38:41.903Z,7.15
2022-08-25T03:41:18.960Z,7.60
2022-08-25T03:43:47.574Z,5.22
2022-08-25T03:46:27.704Z,5.57
2022-08-25T03:48:54.820Z,6.10
2022-08-25T03:51:31.375Z,6.30
2022-08-25T03:53:59.245Z,7.90
2022-08-25T03:56:27.482Z,6.78
2022-08-25T03:58:55.800Z,7.75
2022-08-25T04:01:23.344Z,9.38
2022-08-25T04:03:50.156Z,7.93
2022-08-25T04:06:19.046Z,9.40
2022-08-25T04:08:46.409Z,6.70
2022-08-25T04:11:19.899Z,7.25
2022-08-25T04:13:47.744Z,8.88
2022-08-25T04:16:27.785Z,7.82
2022-08-25T04:18:57.168Z,7.57
2022-08-25T04:21:25.417Z,6.85
2022-08-25T04:23:54.140Z,10.65
2022-08-25T04:26:33.684Z,6.30
2022-08-25T04:29:02.964Z,6.63
2022-08-25T04:31:31.194Z,7.53
2022-08-25T04:33:59.268Z,8.75
2022-08-25T04:36:26.034Z,7.93
2022-08-25T04:38:52.934Z,8.00
2022-08-25T04:41:22.859Z,7.68
2022-08-25T04:43:49.809Z,9.57
2022-08-25T04:46:20.512Z,6.95
2022-08-25T04:48:50.241Z,7.28
2022-08-25T04:51:19.443Z,6.35
2022-08-25T04:53:46.643Z,8.57
2022-08-25T04:56:15.326Z,9.65
2022-08-25T04:58:42.626Z,8.63
2022-08-25T05:01:17.204Z,7.25
2022-08-25T05:03:45.378Z,8.38
2022-08-25T05:06:16.032Z,7.82
2022-08-25T05:08:46.037Z,7.75
2022-08-25T05:11:14.820Z,8.70
2022-08-25T05:13:42.971Z,13.73
2022-08-25T05:16:11.422Z,14.38
2022-08-25T05:18:38.793Z,14.93
2022-08-25T05:21:11.003Z,14.07
2022-08-25T05:23:39.298Z,10.88
2022-08-25T05:26:13.679Z,11.50
2022-08-25T05:28:43.663Z,12.80
2022-08-25T05:31:12.733Z,12.02
2022-08-25T05:33:40.427Z,14.57
2022-08-25T05:36:08.542Z,14.00
2022-08-25T05:38:35.492Z,16.95
2022-08-25T05:41:05.836Z,13.48
2022-08-25T05:43:33.426Z,14.60
2022-08-25T05:46:01.337Z,12.07
2022-08-25T05:48:28.146Z,12.50
2022-08-25T05:51:00.790Z,10.80
2022-08-25T05:53:29.845Z,10.75
2022-08-25T05:56:00.664Z,11.20
2022-08-25T05:58:28.786Z,10.23
2022-08-25T06:00:57.175Z,10.18
2022-08-25T06:03:24.005Z,8.65
2022-08-25T06:05:50.783Z,8.57
2022-08-25T06:08:17.564Z,10.80
2022-08-25T06:10:44.343Z,9.38
2022-08-25T06:13:11.103Z,12.40
2022-08-25T06:15:38.676Z,10.35
2022-08-25T06:18:05.671Z,9.45
2022-08-25T06:20:32.699Z,9.18
2022-08-25T06:23:00.160Z,10.48
2022-08-25T06:25:27.912Z,9.73
2022-08-25T06:27:55.296Z,9.05
2022-08-25T06:30:28.943Z,8.10
2022-08-25T06:32:56.971Z,10.63
2022-08-25T06:35:24.011Z,13.25
2022-08-25T06:37:50.748Z,9.10
2022-08-25T06:40:17.549Z,11.45
2022-08-25T06:42:48.730Z,8.98
2022-08-25T06:45:15.829Z,7.45
2022-08-25T06:47:42.881Z,9.48
2022-08-25T06:50:12.734Z,8.52
2022-08-25T06:52:39.641Z,7.40
2022-08-25T06:55:06.806Z,6.22
2022-08-25T06:57:35.841Z,7.15
2022-08-25T07:00:06.466Z,6.85
2022-08-25T07:02:35.360Z,6.63
2022-08-25T07:05:02.978Z,8.13
2022-08-25T07:07:42.871Z,7.95
2022-08-25T07:10:11.044Z,6.50
2022-08-25T07:12:37.820Z,7.35
2022-08-25T07:15:19.439Z,7.63
2022-08-25T07:17:47.558Z,5.97
2022-08-25T07:20:16.615Z,6.78
2022-08-25T07:22:43.529Z,7.03
2022-08-25T07:25:11.912Z,6.63
2022-08-25T07:27:39.726Z,6.50
2022-08-25T07:30:09.620Z,6.45
2022-08-25T07:32:38.096Z,6.68
2022-08-25T07:35:15.725Z,5.50
2022-08-25T07:37:50.364Z,6.03
2022-08-25T07:40:24.997Z,5.43
2022-08-25T07:42:56.417Z,6.57
2022-08-25T07:45:30.399Z,5.70
2022-08-25T07:48:11.390Z,9.57
2022-08-25T07:50:44.071Z,7.55
2022-08-25T07:53:12.152Z,6.88
2022-08-25T07:55:39.371Z,5.32
2022-08-25T07:58:09.799Z,5.03
2022-08-25T08:00:40.512Z,5.13
2022-08-25T08:03:12.875Z,4.97
2022-08-25T08:05:51.044Z,5.25
2022-08-25T08:08:18.924Z,5.60
2022-08-25T08:11:04.193Z,6.85
2022-08-25T08:13:36.679Z,4.90
2022-08-25T08:16:10.285Z,4.93
2022-08-25T08:18:38.400Z,8.05
2022-08-25T08:21:12.739Z,5.93
2022-08-25T08:23:40.040Z,4.65
2022-08-25T08:26:07.236Z,10.68
2022-08-25T08:31:03.453Z,5.53
2022-08-25T08:33:40.606Z,6.28
2022-08-25T08:36:11.774Z,8.55
2022-08-25T08:38:40.857Z,7.25
2022-08-25T08:44:46.622Z,7.90
2022-08-25T08:47:44.737Z,5.32
2022-08-25T08:50:33.900Z,6.32
2022-08-25T08:55:39.431Z,5.47
2022-08-25T08:58:13.084Z,5.22
2022-08-25T09:00:51.849Z,6.30
2022-08-25T09:03:27.863Z,6.60
2022-08-25T09:05:58.519Z,4.90
2022-08-25T09:08:25.447Z,4.82
2022-08-25T09:11:18.852Z,5.47
2022-08-25T09:14:06.710Z,4.32
2022-08-25T09:17:25.461Z,4.97
2022-08-25T09:20:18.293Z,5.68
2022-08-25T09:23:22.020Z,4.43
2022-08-25T09:26:21.060Z,6.65
2022-08-25T09:29:02.126Z,5.18
2022-08-25T09:31:36.443Z,5.03
2022-08-25T09:34:06.306Z,4.82
2022-08-25T09:36:37.521Z,4.80
2022-08-25T09:39:06.141Z,5.95
2022-08-25T09:41:45.266Z,5.10
2022-08-25T09:44:24.169Z,4.87
2022-08-25T09:47:02.099Z,8.15
2022-08-25T09:49:38.939Z,5.18
2022-08-25T09:52:32.387Z,5.47
2022-08-25T09:55:22.408Z,4.13
2022-08-25T09:57:55.011Z,4.75
2022-08-25T10:00:33.869Z,7.03
2022-08-25T10:03:06.090Z,7.25
2022-08-25T10:05:35.627Z,4.25
2022-08-25T10:08:11.122Z,5.05
2022-08-25T10:10:46.202Z,5.25
2022-08-25T10:13:22.705Z,7.55
2022-08-25T10:16:20.174Z,4.45
2022-08-25T10:19:02.844Z,7.68
2022-08-25T10:21:29.631Z,6.80
2022-08-25T10:23:56.528Z,5.65
2022-08-25T10:27:04.651Z,5.00
2022-08-25T10:29:59.527Z,7.37
2022-08-25T10:32:35.175Z,4.47
2022-08-25T10:35:25.854Z,7.05
2022-08-25T10:37:58.492Z,4.38
2022-08-25T10:40:44.695Z,6.78
2022-08-25T10:43:44.362Z,7.28
2022-08-25T10:46:23.319Z,4.80
2022-08-25T10:49:16.268Z,7.00
2022-08-25T10:52:15.833Z,7.68
2022-08-25T10:55:06.688Z,5.07
2022-08-25T10:57:48.558Z,7.10
2022-08-25T11:00:23.081Z,6.80
2022-08-25T11:03:17.839Z,6.80
2022-08-25T11:06:10.168Z,8.85
2022-08-25T11:08:54.818Z,6.13
2022-08-25T11:11:32.875Z,5.75
2022-08-25T11:14:12.395Z,7.80
2022-08-25T11:16:51.148Z,9.38
2022-08-25T11:19:27.005Z,6.32
2022-08-25T11:22:12.235Z,6.50
2022-08-25T11:24:48.548Z,5.97
2022-08-25T11:27:22.432Z,8.98
2022-08-25T11:30:14.652Z,6.70
2022-08-25T11:35:13.917Z,10.35
2022-08-25T11:38:05.264Z,7.75
2022-08-25T11:40:44.385Z,6.13
2022-08-25T11:43:40.613Z,6.43
2022-08-25T11:46:28.680Z,6.25
2022-08-25T11:49:07.218Z,6.18
2022-08-25T11:51:41.410Z,6.38
2022-08-25T11:54:17.168Z,9.57
2022-08-25T11:57:06.447Z,8.07
2022-08-25T11:59:57.876Z,6.93
2022-08-25T12:02:34.603Z,10.13
2022-08-25T12:05:17.613Z,7.55
2022-08-25T12:07:52.028Z,8.70
2022-08-25T12:10:23.471Z,9.93
2022-08-25T12:13:04.754Z,9.40
2022-08-25T12:15:56.679Z,8.20
2022-08-25T12:18:29.969Z,7.28
2022-08-25T12:20:56.745Z,8.75
2022-08-25T12:23:32.644Z,8.10
2022-08-25T12:26:24.707Z,10.13
2022-08-25T12:29:07.377Z,7.13
2022-08-25T12:32:06.999Z,10.70
2022-08-25T12:34:51.092Z,11.60
2022-08-25T12:37:20.837Z,6.90
2022-08-25T12:39:51.173Z,11.95
2022-08-25T12:42:28.612Z,10.25
2022-08-25T12:45:32.150Z,8.25
2022-08-25T12:48:42.944Z,8.02
2022-08-25T12:51:19.473Z,9.00
2022-08-25T12:54:01.304Z,10.38
2022-08-25T12:56:39.533Z,11.82
2022-08-25T12:59:20.107Z,9.40
2022-08-25T13:02:15.872Z,12.98
2022-08-25T13:04:43.074Z,9.18
2022-08-25T13:07:46.137Z,9.57
2022-08-25T13:10:31.672Z,14.52
2022-08-25T13:12:58.431Z,14.80
2022-08-25T13:15:35.312Z,14.35
2022-08-25T13:18:36.687Z,16.10
2022-08-25T13:26:03.871Z,12.00
2022-08-25T13:28:36.249Z,15.30
2022-08-25T13:31:19.081Z,17.63
2022-08-25T13:33:59.621Z,14.98
2022-08-25T13:36:54.104Z,15.68
2022-08-25T13:39:45.473Z,13.88
2022-08-25T13:42:16.575Z,14.97
2022-08-25T13:44:52.316Z,15.05
2022-08-25T13:47:43.794Z,11.00
2022-08-25T13:50:30.718Z,14.10
2022-08-25T13:53:11.634Z,13.65
2022-08-25T13:55:51.959Z,16.58
2022-08-25T13:58:32.500Z,12.65
2022-08-25T14:01:47.695Z,10.07
2022-08-25T14:04:32.463Z,12.75
2022-08-25T14:07:25.012Z,14.57
2022-08-25T14:10:00.110Z,19.38
2022-08-25T14:12:39.979Z,20.38
2022-08-25T14:15:06.849Z,19.30
2022-08-25T14:17:40.103Z,14.23
2022-08-25T14:20:27.268Z,12.32
2022-08-25T14:22:58.057Z,17.48
2022-08-25T14:25:27.055Z,13.70
2022-08-25T14:28:06.957Z,17.55
2022-08-25T14:30:36.568Z,12.75
2022-08-25T14:33:04.351Z,18.30
2022-08-25T14:35:31.703Z,16.33
2022-08-25T14:37:58.885Z,13.00
2022-08-25T14:40:25.797Z,11.20
2022-08-25T14:42:52.618Z,12.38
2022-08-25T14:45:19.928Z,15.23
2022-08-25T14:47:49.997Z,11.93
2022-08-25T14:50:20.829Z,13.23
2022-08-25T14:52:48.327Z,13.50
2022-08-25T14:55:31.334Z,15.52
2022-08-25T15:00:26.473Z,17.23
2022-08-25T15:02:55.193Z,11.93
2022-08-25T15:05:27.130Z,15.73
2022-08-25T15:08:14.333Z,11.63
2022-08-25T15:10:42.009Z,12.70
2022-08-25T15:13:10.715Z,19.52
2022-08-25T15:15:52.058Z,17.90
2022-08-25T15:18:20.685Z,15.98
2022-08-25T15:20:50.185Z,15.68
2022-08-25T15:23:18.624Z,18.15
2022-08-25T15:25:47.459Z,16.17
2022-08-25T15:28:17.295Z,20.45
2022-08-25T15:33:13.556Z,26.85
2022-08-25T15:35:41.438Z,25.20
2022-08-25T15:38:08.608Z,20.05
2022-08-25T15:40:37.586Z,28.13
2022-08-25T15:43:05.704Z,22.83
2022-08-25T15:45:35.967Z,23.35
2022-08-25T15:48:04.411Z,24.00
2022-08-25T15:50:34.495Z,22.40
2022-08-25T15:53:01.606Z,23.55
2022-08-25T15:55:28.716Z,26.17
2022-08-25T15:57:55.663Z,21.70
2022-08-25T16:00:23.065Z,21.90
2022-08-25T16:02:50.196Z,21.63
2022-08-25T16:05:17.186Z,17.83
2022-08-25T16:07:46.010Z,24.55
2022-08-25T16:10:13.598Z,24.30
2022-08-25T16:12:42.677Z,23.88
2022-08-25T16:15:12.196Z,21.80
2022-08-25T16:17:40.679Z,17.13
2022-08-25T16:20:13.973Z,20.73
2022-08-25T16:22:41.317Z,19.02
2022-08-25T16:25:08.932Z,20.50
2022-08-25T16:27:38.805Z,22.65
2022-08-25T16:32:40.873Z,18.98
2022-08-25T16:35:10.949Z,20.15
2022-08-25T16:37:38.034Z,19.87
2022-08-25T16:40:05.972Z,21.92
2022-08-25T16:42:33.416Z,19.45
2022-08-25T16:45:06.970Z,20.83
2022-08-25T16:47:38.036Z,31.08
2022-08-25T16:50:08.919Z,20.60
2022-08-25T16:52:56.558Z,26.63
2022-08-25T16:55:26.220Z,26.02
2022-08-25T16:57:54.200Z,22.92
2022-08-25T17:00:28.505Z,22.85
2022-08-25T17:03:01.160Z,22.42
2022-08-25T17:05:29.664Z,18.42
2022-08-25T17:08:18.614Z,23.25
2022-08-25T17:10:46.092Z,20.88
2022-08-25T17:13:13.566Z,20.73
2022-08-25T17:15:46.889Z,22.10
2022-08-25T17:18:13.896Z,26.67
2022-08-25T17:20:43.360Z,23.38
2022-08-25T17:23:12.414Z,22.77
2022-08-25T17:25:41.416Z,22.70
2022-08-25T17:30:39.921Z,27.60
2022-08-25T17:33:06.915Z,20.25
2022-08-25T17:35:42.680Z,20.67
2022-08-25T17:38:10.937Z,18.25
2022-08-25T17:40:38.769Z,19.77
2022-08-25T17:43:08.997Z,25.65
2022-08-25T17:45:37.001Z,18.65
2022-08-25T17:48:04.247Z,18.70
2022-08-25T17:50:31.563Z,18.73
2022-08-25T17:53:01.066Z,20.92
2022-08-25T17:55:27.894Z,18.40
2022-08-25T17:57:54.653Z,18.13
2022-08-25T18:00:23.332Z,22.75
2022-08-25T18:02:50.705Z,19.48
2022-08-25T18:05:18.238Z,18.23
2022-08-25T18:07:45.246Z,23.27
2022-08-25T18:10:12.861Z,18.73
2022-08-25T18:12:39.870Z,23.67
2022-08-25T18:15:08.188Z,12.82
2022-08-25T18:17:36.101Z,14.98
2022-08-25T18:20:06.978Z,15.82
2022-08-25T18:22:36.738Z,16.33
2022-08-25T18:25:06.853Z,17.33
2022-08-25T18:27:34.459Z,15.05
2022-08-25T18:30:01.648Z,17.58
2022-08-25T18:32:29.322Z,13.75
2022-08-25T18:34:56.615Z,14.20
2022-08-25T18:37:42.507Z,15.68
2022-08-25T18:40:25.643Z,15.85
2022-08-25T18:43:02.067Z,17.13
2022-08-25T18:45:33.715Z,17.00
2022-08-25T18:48:01.016Z,18.27
2022-08-25T18:50:32.628Z,13.52
2022-08-25T18:53:00.371Z,15.07
2022-08-25T18:55:27.979Z,20.80
2022-08-25T18:57:55.647Z,15.38
2022-08-25T19:00:25.345Z,18.73
2022-08-25T19:02:54.456Z,15.93
2022-08-25T19:05:26.982Z,21.53
2022-08-25T19:07:55.473Z,23.35
2022-08-25T19:10:23.925Z,18.02
2022-08-25T19:12:51.058Z,20.70
2022-08-25T19:15:18.291Z,16.52
2022-08-25T19:17:53.101Z,16.95
2022-08-25T19:20:21.891Z,14.93
2022-08-25T19:22:49.270Z,18.17
2022-08-25T19:25:17.494Z,13.77
2022-08-25T19:27:45.228Z,18.27
2022-08-25T19:30:13.958Z,15.65
2022-08-25T19:32:43.409Z,13.80
2022-08-25T19:37:42.598Z,20.60
2022-08-25T19:40:10.604Z,20.02
2022-08-25T19:42:38.570Z,15.77
2022-08-25T19:45:08.272Z,19.05
2022-08-25T19:47:35.143Z,17.45
2022-08-25T19:50:02.142Z,16.17
2022-08-25T19:52:29.604Z,19.73
2022-08-25T19:54:57.796Z,17.88
2022-08-25T19:57:28.439Z,15.20
2022-08-25T20:00:15.172Z,13.23
2022-08-25T20:02:42.954Z,16.02
2022-08-25T20:05:10.531Z,15.48
2022-08-25T20:07:37.511Z,13.73
2022-08-25T20:10:07.000Z,15.40
2022-08-25T20:12:34.557Z,18.40
2022-08-25T20:15:01.996Z,19.08
2022-08-25T20:17:29.173Z,18.25
2022-08-25T20:19:59.279Z,16.55
2022-08-25T20:22:28.804Z,17.73
2022-08-25T20:25:01.962Z,15.70
2022-08-25T20:27:36.913Z,16.30
2022-08-25T20:30:10.692Z,17.13
2022-08-25T20:32:37.944Z,16.95
2022-08-25T20:35:09.350Z,14.57
2022-08-25T20:37:40.803Z,13.88
2022-08-25T20:40:09.228Z,13.15
2022-08-25T20:42:36.611Z,15.75
2022-08-25T20:45:05.274Z,15.60
2022-08-25T20:47:32.318Z,16.95
2022-08-25T20:50:04.531Z,16.90
2022-08-25T20:52:34.220Z,15.13
2022-08-25T20:55:01.800Z,17.90
2022-08-25T20:57:28.723Z,20.25
2022-08-25T20:59:57.039Z,20.05
2022-08-25T21:02:25.309Z,17.02
2022-08-25T21:04:53.730Z,18.40
2022-08-25T21:07:24.629Z,16.85
2022-08-25T21:09:52.570Z,18.15
2022-08-25T21:12:20.431Z,19.25
2022-08-25T21:14:48.191Z,15.23
2022-08-25T21:17:16.327Z,17.25
2022-08-25T21:19:46.207Z,17.92
2022-08-25T21:22:12.988Z,15.23
2022-08-25T21:24:39.870Z,15.60
2022-08-25T21:27:06.889Z,17.77
2022-08-25T21:29:34.237Z,15.98
2022-08-25T21:32:01.103Z,15.80
2022-08-25T21:34:29.092Z,20.13
2022-08-25T21:36:58.000Z,20.02
2022-08-25T21:39:27.577Z,16.67
2022-08-25T21:41:56.486Z,22.50
2022-08-25T21:44:23.846Z,21.40
2022-08-25T21:46:54.306Z,17.55
2022-08-25T21:49:22.544Z,23.38
2022-08-25T21:51:59.319Z,20.75
2022-08-25T21:54:28.596Z,18.58
2022-08-25T21:57:02.599Z,17.42
2022-08-25T21:59:32.058Z,27.25
2022-08-25T22:02:01.055Z,27.85
2022-08-25T22:04:28.557Z,26.15
2022-08-25T22:06:58.097Z,17.08
2022-08-25T22:09:26.032Z,17.30
2022-08-25T22:11:55.790Z,17.25
2022-08-25T22:14:23.980Z,18.35
2022-08-25T22:16:53.488Z,24.13
2022-08-25T22:19:21.527Z,18.85
2022-08-25T22:21:50.865Z,17.40
2022-08-25T22:24:18.082Z,17.58
2022-08-25T22:26:47.504Z,19.88
2022-08-25T22:29:23.251Z,19.75
2022-08-25T22:31:59.467Z,17.15
2022-08-25T22:34:32.661Z,16.42
2022-08-25T22:37:00.952Z,16.67
2022-08-25T22:39:28.439Z,23.73
2022-08-25T22:41:55.461Z,22.15
2022-08-25T22:44:23.198Z,17.90
2022-08-25T22:46:50.010Z,27.40
2022-08-25T22:49:16.865Z,18.85
2022-08-25T22:51:44.229Z,19.70
2022-08-25T22:54:15.063Z,23.97
2022-08-25T22:56:42.089Z,19.88
2022-08-25T22:59:11.456Z,16.85
2022-08-25T23:01:39.721Z,17.38
2022-08-25T23:04:07.668Z,19.33
2022-08-25T23:06:35.443Z,18.38
2022-08-25T23:09:04.612Z,20.55
2022-08-25T23:11:31.548Z,20.33
2022-08-25T23:14:05.618Z,19.30
2022-08-25T23:16:33.209Z,18.05
2022-08-25T23:19:00.732Z,21.80
2022-08-25T23:21:46.386Z,20.52
2022-08-25T23:24:29.398Z,18.40
2022-08-25T23:26:59.360Z,17.77
2022-08-25T23:29:27.745Z,15.98
2022-08-25T23:31:54.771Z,16.35
2022-08-25T23:34:22.176Z,14.10
2022-08-25T23:36:49.065Z,21.02
2022-08-25T23:39:15.846Z,21.55
2022-08-25T23:41:42.733Z,21.77
2022-08-25T23:44:11.864Z,20.52
2022-08-25T23:46:44.687Z,24.10
2022-08-25T23:49:11.825Z,19.00
2022-08-25T23:51:38.677Z,19.10
2022-08-25T23:54:09.515Z,19.10
2022-08-25T23:56:44.842Z,21.45
2022-08-25T23:59:24.529Z,21.15
